createdAt,value
2017-04-19T00:00:58.512Z,22.2
2017-04-19T00:01:58.853Z,22.22
2017-04-19T00:02:58.886Z,22.22
2017-04-19T00:03:59.520Z,22.2
2017-04-19T00:04:58.934Z,22.18
2017-04-19T00:05:58.967Z,22.18
2017-04-19T00:06:58.987Z,22.15
2017-04-19T00:07:58.700Z,22.17
2017-04-19T00:08:58.833Z,22.15
2017-04-19T00:09:59.073Z,22.09
2017-04-19T00:10:58.480Z,22.17
2017-04-19T00:11:59.128Z,22.17
2017-04-19T00:12:59.150Z,22.06
2017-04-19T00:13:59.173Z,22.15
2017-04-19T00:14:59.205Z,22.07
2017-04-19T00:15:58.919Z,22.14
2017-04-19T00:16:59.255Z,22.1
2017-04-19T00:17:59.285Z,22.07
2017-04-19T00:18:59.002Z,22.05
2017-04-19T00:19:59.018Z,22.03
2017-04-19T00:20:59.062Z,22.05
2017-04-19T00:21:59.391Z,22.09
2017-04-19T00:22:59.108Z,22.07
2017-04-19T00:23:59.449Z,22.03
2017-04-19T00:24:59.470Z,22.03
2017-04-19T00:25:59.187Z,22
2017-04-19T00:26:59.207Z,22.05
2017-04-19T00:27:59.244Z,22.06
2017-04-19T00:28:59.573Z,22.06
2017-04-19T00:29:59.291Z,22
2017-04-19T00:30:59.306Z,22.07
2017-04-19T00:31:59.659Z,22.07
2017-04-19T00:32:59.696Z,22.05
2017-04-19T00:33:59.717Z,21.9
2017-04-19T00:34:59.746Z,21.92
2017-04-19T00:35:59.741Z,22
2017-04-19T00:36:59.795Z,21.88
2017-04-19T00:37:59.824Z,21.99
2017-04-19T00:38:59.845Z,21.94
2017-04-19T00:39:59.570Z,21.92
2017-04-19T00:40:59.582Z,21.99
2017-04-19T00:41:59.931Z,21.96
2017-04-19T00:42:59.643Z,21.9
2017-04-19T00:43:59.976Z,21.9
2017-04-19T00:44:59.701Z,21.94
2017-04-19T00:46:00.025Z,21.84
2017-04-19T00:46:59.751Z,21.83
2017-04-19T00:47:59.467Z,21.84
2017-04-19T00:48:59.800Z,21.83
2017-04-19T00:50:00.142Z,21.91
2017-04-19T00:50:59.857Z,21.88
2017-04-19T00:52:00.198Z,21.84
2017-04-19T00:52:59.911Z,21.88
2017-04-19T00:54:00.252Z,21.83
2017-04-19T00:55:00.278Z,21.88
2017-04-19T00:56:00.296Z,21.88
2017-04-19T00:57:00.330Z,21.77
2017-04-19T00:58:00.359Z,21.9
2017-04-19T00:59:00.387Z,21.86
2017-04-19T00:59:59.785Z,21.9
2017-04-19T01:01:00.429Z,21.91
2017-04-19T01:02:00.711Z,21.9
2017-04-19T01:03:00.493Z,21.8
2017-04-19T01:04:00.518Z,21.8
2017-04-19T01:05:00.232Z,21.84
2017-04-19T01:06:00.564Z,21.77
2017-04-19T01:07:00.849Z,21.82
2017-04-19T01:08:00.306Z,21.75
2017-04-19T01:09:00.651Z,21.72
2017-04-19T01:10:00.679Z,21.84
2017-04-19T01:11:00.703Z,21.74
2017-04-19T01:12:00.668Z,21.77
2017-04-19T01:13:00.448Z,21.75
2017-04-19T01:14:00.778Z,21.69
2017-04-19T01:15:00.812Z,21.69
2017-04-19T01:16:00.523Z,21.72
2017-04-19T01:17:00.801Z,21.69
2017-04-19T01:18:00.890Z,21.67
2017-04-19T01:19:00.291Z,21.71
2017-04-19T01:20:00.632Z,21.69
2017-04-19T01:21:00.653Z,21.74
2017-04-19T01:22:01.244Z,21.72
2017-04-19T01:23:01.022Z,21.69
2017-04-19T01:24:01.130Z,21.72
2017-04-19T01:25:01.086Z,21.69
2017-04-19T01:26:01.115Z,21.67
2017-04-19T01:27:01.380Z,21.65
2017-04-19T01:28:00.833Z,21.72
2017-04-19T01:29:01.184Z,21.53
2017-04-19T01:30:01.217Z,21.67
2017-04-19T01:31:01.236Z,21.61
2017-04-19T01:32:01.505Z,21.59
2017-04-19T01:33:00.977Z,21.65
2017-04-19T01:34:01.308Z,21.56
2017-04-19T01:35:01.335Z,21.65
2017-04-19T01:36:01.369Z,21.62
2017-04-19T01:37:01.648Z,21.62
2017-04-19T01:38:01.097Z,21.56
2017-04-19T01:39:01.447Z,21.58
2017-04-19T01:40:01.487Z,21.61
2017-04-19T01:41:01.200Z,21.54
2017-04-19T01:42:01.456Z,21.62
2017-04-19T01:43:01.253Z,21.54
2017-04-19T01:44:01.729Z,21.58
2017-04-19T01:45:01.602Z,21.52
2017-04-19T01:46:01.318Z,21.58
2017-04-19T01:47:01.911Z,21.56
2017-04-19T01:48:01.693Z,21.5
2017-04-19T01:49:01.706Z,21.46
2017-04-19T01:50:01.113Z,21.52
2017-04-19T01:51:01.451Z,21.43
2017-04-19T01:52:01.734Z,21.49
2017-04-19T01:53:01.816Z,21.54
2017-04-19T01:54:01.529Z,21.49
2017-04-19T01:55:01.865Z,21.5
2017-04-19T01:56:01.938Z,21.44
2017-04-19T01:57:02.175Z,21.46
2017-04-19T01:58:01.948Z,21.43
2017-04-19T01:59:01.980Z,21.5
2017-04-19T02:00:02.006Z,21.5
2017-04-19T02:01:02.027Z,21.46
2017-04-19T02:02:01.685Z,21.4
2017-04-19T02:03:02.079Z,21.49
2017-04-19T02:04:01.796Z,21.46
2017-04-19T02:05:02.161Z,21.46
2017-04-19T02:06:02.163Z,21.43
2017-04-19T02:07:02.442Z,21.47
2017-04-19T02:08:02.207Z,21.46
2017-04-19T02:09:02.244Z,21.44
2017-04-19T02:10:02.265Z,21.46
2017-04-19T02:11:02.294Z,21.4
2017-04-19T02:12:02.334Z,21.43
2017-04-19T02:13:02.347Z,21.35
2017-04-19T02:14:02.367Z,21.35
2017-04-19T02:15:02.084Z,21.38
2017-04-19T02:16:02.106Z,21.38
2017-04-19T02:17:02.457Z,21.35
2017-04-19T02:18:02.167Z,21.4
2017-04-19T02:19:02.511Z,21.43
2017-04-19T02:20:02.531Z,21.35
2017-04-19T02:21:02.545Z,21.42
2017-04-19T02:22:02.274Z,21.37
2017-04-19T02:23:02.294Z,21.37
2017-04-19T02:24:02.323Z,21.38
2017-04-19T02:25:02.355Z,21.28
2017-04-19T02:26:02.689Z,21.4
2017-04-19T02:27:02.717Z,21.29
2017-04-19T02:28:02.738Z,21.4
2017-04-19T02:29:02.771Z,21.31
2017-04-19T02:30:02.485Z,21.29
2017-04-19T02:31:02.508Z,21.34
2017-04-19T02:32:02.850Z,21.29
2017-04-19T02:33:02.870Z,21.31
2017-04-19T02:34:02.583Z,21.29
2017-04-19T02:35:02.928Z,21.25
2017-04-19T02:36:02.949Z,21.25
2017-04-19T02:37:02.989Z,21.27
2017-04-19T02:38:02.689Z,21.32
2017-04-19T02:39:02.563Z,21.34
2017-04-19T02:40:03.060Z,21.31
2017-04-19T02:41:03.082Z,21.25
2017-04-19T02:42:03.110Z,21.25
2017-04-19T02:43:02.765Z,21.28
2017-04-19T02:44:03.163Z,21.27
2017-04-19T02:45:03.195Z,21.29
2017-04-19T02:46:03.213Z,21.27
2017-04-19T02:47:03.244Z,21.31
2017-04-19T02:48:03.522Z,21.22
2017-04-19T02:49:02.982Z,21.31
2017-04-19T02:50:03.327Z,21.29
2017-04-19T02:51:03.348Z,21.28
2017-04-19T02:52:03.055Z,21.25
2017-04-19T02:53:03.650Z,21.22
2017-04-19T02:54:03.435Z,21.22
2017-04-19T02:55:03.144Z,21.24
2017-04-19T02:56:03.488Z,21.28
2017-04-19T02:57:03.512Z,21.22
2017-04-19T02:58:03.501Z,21.21
2017-04-19T02:59:03.559Z,21.17
2017-04-19T03:00:03.598Z,21.22
2017-04-19T03:01:03.306Z,21.19
2017-04-19T03:02:03.635Z,21.16
2017-04-19T03:03:03.918Z,21.16
2017-04-19T03:04:03.370Z,21.21
2017-04-19T03:05:03.739Z,21.22
2017-04-19T03:06:03.443Z,21.19
2017-04-19T03:07:03.914Z,21.19
2017-04-19T03:08:04.045Z,21.13
2017-04-19T03:09:03.810Z,21.19
2017-04-19T03:10:03.846Z,21.17
2017-04-19T03:11:03.248Z,21.04
2017-04-19T03:12:03.900Z,21.17
2017-04-19T03:13:04.175Z,21.17
2017-04-19T03:14:03.949Z,21.13
2017-04-19T03:15:03.976Z,21.13
2017-04-19T03:16:03.691Z,21.19
2017-04-19T03:17:04.043Z,21.14
2017-04-19T03:18:04.308Z,21.14
2017-04-19T03:19:03.769Z,21.12
2017-04-19T03:20:03.798Z,21.09
2017-04-19T03:21:03.830Z,21.16
2017-04-19T03:22:03.846Z,21.16
2017-04-19T03:23:03.812Z,21.06
2017-04-19T03:24:04.229Z,21.09
2017-04-19T03:25:04.369Z,21.12
2017-04-19T03:26:04.274Z,21.03
2017-04-19T03:27:04.295Z,21.06
2017-04-19T03:28:03.948Z,21.04
2017-04-19T03:29:04.036Z,21.1
2017-04-19T03:30:04.373Z,21.07
2017-04-19T03:31:04.081Z,21.07
2017-04-19T03:32:03.796Z,21.09
2017-04-19T03:33:04.703Z,21.03
2017-04-19T03:34:04.502Z,21.04
2017-04-19T03:35:04.506Z,21.07
2017-04-19T03:36:04.534Z,21.09
2017-04-19T03:37:04.563Z,21.04
2017-04-19T03:38:04.832Z,21.03
2017-04-19T03:39:04.612Z,21.07
2017-04-19T03:40:04.633Z,21.04
2017-04-19T03:41:04.345Z,21.06
2017-04-19T03:42:04.063Z,21.01
2017-04-19T03:43:04.961Z,21.01
2017-04-19T03:44:04.427Z,21.04
2017-04-19T03:45:04.761Z,21.1
2017-04-19T03:46:04.785Z,20.97
2017-04-19T03:47:04.819Z,21.06
2017-04-19T03:48:05.093Z,20.98
2017-04-19T03:49:04.870Z,21.07
2017-04-19T03:50:04.585Z,20.97
2017-04-19T03:51:04.920Z,21.01
2017-04-19T03:52:04.942Z,20.94
2017-04-19T03:53:04.352Z,20.92
2017-04-19T03:54:04.997Z,20.97
2017-04-19T03:55:05.028Z,20.97
2017-04-19T03:56:04.419Z,20.92
2017-04-19T03:57:04.448Z,20.95
2017-04-19T03:58:04.478Z,20.98
2017-04-19T03:59:05.127Z,21.01
2017-04-19T04:00:05.156Z,20.94
2017-04-19T04:01:04.868Z,21.01
2017-04-19T04:02:05.206Z,20.94
2017-04-19T04:03:05.230Z,20.92
2017-04-19T04:04:05.259Z,20.94
2017-04-19T04:05:05.287Z,20.92
2017-04-19T04:06:05.313Z,20.95
2017-04-19T04:07:05.337Z,21.01
2017-04-19T04:08:05.370Z,20.97
2017-04-19T04:09:05.079Z,21.03
2017-04-19T04:10:05.473Z,20.97
2017-04-19T04:11:05.445Z,20.89
2017-04-19T04:12:05.153Z,20.91
2017-04-19T04:13:05.182Z,20.95
2017-04-19T04:14:05.202Z,20.91
2017-04-19T04:15:05.543Z,20.91
2017-04-19T04:16:05.572Z,20.92
2017-04-19T04:17:05.601Z,20.88
2017-04-19T04:18:05.313Z,20.99
2017-04-19T04:19:05.667Z,21.03
2017-04-19T04:20:05.363Z,20.98
2017-04-19T04:21:05.711Z,20.87
2017-04-19T04:22:05.736Z,20.98
2017-04-19T04:23:05.760Z,20.98
2017-04-19T04:24:05.459Z,20.92
2017-04-19T04:25:05.815Z,20.97
2017-04-19T04:26:05.841Z,21.06
2017-04-19T04:27:05.858Z,20.94
2017-04-19T04:28:05.897Z,21.01
2017-04-19T04:29:05.922Z,20.88
2017-04-19T04:30:05.646Z,20.98
2017-04-19T04:31:05.967Z,20.95
2017-04-19T04:32:05.715Z,20.95
2017-04-19T04:33:05.698Z,20.95
2017-04-19T04:34:05.735Z,21.1
2017-04-19T04:35:06.066Z,20.94
2017-04-19T04:36:05.783Z,21.01
2017-04-19T04:37:05.853Z,21.04
2017-04-19T04:38:06.156Z,21.07
2017-04-19T04:39:06.169Z,21.07
2017-04-19T04:40:05.890Z,21.14
2017-04-19T04:41:05.907Z,21.13
2017-04-19T04:42:05.940Z,21.17
2017-04-19T04:43:06.297Z,21.14
2017-04-19T04:44:06.305Z,21.17
2017-04-19T04:45:06.015Z,21.29
2017-04-19T04:46:06.042Z,21.25
2017-04-19T04:47:06.067Z,21.28
2017-04-19T04:48:05.776Z,21.35
2017-04-19T04:49:06.063Z,21.28
2017-04-19T04:50:06.146Z,21.38
2017-04-19T04:51:06.478Z,21.34
2017-04-19T04:52:06.208Z,21.37
2017-04-19T04:53:06.548Z,21.34
2017-04-19T04:54:06.828Z,21.46
2017-04-19T04:55:06.589Z,21.42
2017-04-19T04:56:06.619Z,21.44
2017-04-19T04:57:06.634Z,21.5
2017-04-19T04:58:06.357Z,21.46
2017-04-19T04:59:06.630Z,21.47
2017-04-19T05:00:06.721Z,21.59
2017-04-19T05:01:06.748Z,21.56
2017-04-19T05:02:06.771Z,21.56
2017-04-19T05:03:06.487Z,21.62
2017-04-19T05:04:07.071Z,21.59
2017-04-19T05:05:06.864Z,21.64
2017-04-19T05:06:06.890Z,21.71
2017-04-19T05:07:06.909Z,21.69
2017-04-19T05:08:06.624Z,21.67
2017-04-19T05:09:06.896Z,21.75
2017-04-19T05:10:06.996Z,21.68
2017-04-19T05:11:07.017Z,21.72
2017-04-19T05:12:07.039Z,21.84
2017-04-19T05:13:07.064Z,21.83
2017-04-19T05:14:07.336Z,21.82
2017-04-19T05:15:06.801Z,21.92
2017-04-19T05:16:07.142Z,21.83
2017-04-19T05:17:07.165Z,21.92
2017-04-19T05:18:07.191Z,21.86
2017-04-19T05:19:07.467Z,21.88
2017-04-19T05:20:06.937Z,21.91
2017-04-19T05:21:06.955Z,21.96
2017-04-19T05:22:06.989Z,21.96
2017-04-19T05:23:06.699Z,21.99
2017-04-19T05:24:07.376Z,22
2017-04-19T05:25:07.069Z,21.9
2017-04-19T05:26:07.423Z,22
2017-04-19T05:27:07.431Z,22.06
2017-04-19T05:28:07.147Z,22.03
2017-04-19T05:29:07.731Z,22.09
2017-04-19T05:30:06.893Z,22.06
2017-04-19T05:31:07.536Z,22.06
2017-04-19T05:32:07.565Z,22.06
2017-04-19T05:33:07.275Z,22.09
2017-04-19T05:34:07.868Z,22
2017-04-19T05:35:07.644Z,22.05
2017-04-19T05:36:07.363Z,22.1
2017-04-19T05:37:07.381Z,22.06
2017-04-19T05:38:07.718Z,22.03
2017-04-19T05:39:08.003Z,22.1
2017-04-19T05:40:07.764Z,22.07
2017-04-19T05:41:07.796Z,22.06
2017-04-19T05:42:07.809Z,22.14
2017-04-19T05:43:07.858Z,22.09
2017-04-19T05:44:08.137Z,22.09
2017-04-19T05:45:07.591Z,22.14
2017-04-19T05:46:07.941Z,22.15
2017-04-19T05:47:07.961Z,22.15
2017-04-19T05:48:07.988Z,22.12
2017-04-19T05:49:08.267Z,22.1
2017-04-19T05:50:08.051Z,22.2
2017-04-19T05:51:08.072Z,22.15
2017-04-19T05:52:07.778Z,22.17
2017-04-19T05:53:08.121Z,22.14
2017-04-19T05:54:08.398Z,22.15
2017-04-19T05:55:07.867Z,22.2
2017-04-19T05:56:07.893Z,22.14
2017-04-19T05:57:08.229Z,22.21
2017-04-19T05:58:08.255Z,22.2
2017-04-19T05:59:08.214Z,22.21
2017-04-19T06:00:08.307Z,22.27
2017-04-19T06:01:08.336Z,22.3
2017-04-19T06:02:08.359Z,22.3
2017-04-19T06:03:08.389Z,22.28
2017-04-19T06:04:08.349Z,22.22
2017-04-19T06:05:08.128Z,22.31
2017-04-19T06:06:08.460Z,22.25
2017-04-19T06:07:08.484Z,22.28
2017-04-19T06:08:08.525Z,22.21
2017-04-19T06:09:08.802Z,22.36
2017-04-19T06:10:08.566Z,22.35
2017-04-19T06:11:08.595Z,22.3
2017-04-19T06:12:08.612Z,22.36
2017-04-19T06:13:08.341Z,22.39
2017-04-19T06:14:08.925Z,22.4
2017-04-19T06:15:08.390Z,22.39
2017-04-19T06:16:08.723Z,22.37
2017-04-19T06:17:08.444Z,22.42
2017-04-19T06:18:08.781Z,22.4
2017-04-19T06:19:08.816Z,22.46
2017-04-19T06:20:08.834Z,22.39
2017-04-19T06:21:08.236Z,22.45
2017-04-19T06:22:08.571Z,22.4
2017-04-19T06:23:08.605Z,22.47
2017-04-19T06:24:09.194Z,22.49
2017-04-19T06:25:08.970Z,22.54
2017-04-19T06:26:08.999Z,22.46
2017-04-19T06:27:09.027Z,22.61
2017-04-19T06:28:09.052Z,22.64
2017-04-19T06:29:09.017Z,22.51
2017-04-19T06:30:09.106Z,22.62
2017-04-19T06:31:08.819Z,22.61
2017-04-19T06:32:08.839Z,22.61
2017-04-19T06:33:09.184Z,22.54
2017-04-19T06:34:08.833Z,22.65
2017-04-19T06:35:08.614Z,22.6
2017-04-19T06:36:08.954Z,22.67
2017-04-19T06:37:08.983Z,22.64
2017-04-19T06:38:09.319Z,22.64
2017-04-19T06:39:09.595Z,22.62
2017-04-19T06:40:09.369Z,22.64
2017-04-19T06:41:09.086Z,22.64
2017-04-19T06:42:08.794Z,22.6
2017-04-19T06:43:09.444Z,22.58
2017-04-19T06:44:09.481Z,22.62
2017-04-19T06:45:09.541Z,22.62
2017-04-19T06:46:09.339Z,22.61
2017-04-19T06:47:09.559Z,22.61
2017-04-19T06:48:09.581Z,22.62
2017-04-19T06:49:09.297Z,22.61
2017-04-19T06:50:09.330Z,22.58
2017-04-19T06:51:09.667Z,22.61
2017-04-19T06:52:09.694Z,22.64
2017-04-19T06:53:09.398Z,22.54
2017-04-19T06:54:09.780Z,22.58
2017-04-19T06:55:09.836Z,22.6
2017-04-19T06:56:09.800Z,22.58
2017-04-19T06:57:09.826Z,22.58
2017-04-19T06:58:09.536Z,22.62
2017-04-19T06:59:09.565Z,22.62
2017-04-19T07:00:09.909Z,22.6
2017-04-19T07:01:09.938Z,22.64
2017-04-19T07:02:09.959Z,22.62
2017-04-19T07:03:09.991Z,22.62
2017-04-19T07:04:09.696Z,22.61
2017-04-19T07:05:09.729Z,22.61
2017-04-19T07:06:09.754Z,22.58
2017-04-19T07:07:10.101Z,22.62
2017-04-19T07:08:10.121Z,22.54
2017-04-19T07:09:10.151Z,22.49
2017-04-19T07:10:10.178Z,22.45
2017-04-19T07:11:10.207Z,22.46
2017-04-19T07:12:09.914Z,22.49
2017-04-19T07:13:10.267Z,22.51
2017-04-19T07:14:10.272Z,22.47
2017-04-19T07:15:10.001Z,22.55
2017-04-19T07:16:10.345Z,22.51
2017-04-19T07:17:10.054Z,22.52
2017-04-19T07:18:10.391Z,22.4
2017-04-19T07:19:10.105Z,22.42
2017-04-19T07:20:10.449Z,22.4
2017-04-19T07:21:09.850Z,22.43
2017-04-19T07:22:10.190Z,22.39
2017-04-19T07:23:10.535Z,22.42
2017-04-19T07:24:09.922Z,22.39
2017-04-19T07:25:10.580Z,22.37
2017-04-19T07:26:10.617Z,22.39
2017-04-19T07:27:10.010Z,22.4
2017-04-19T07:28:10.346Z,22.37
2017-04-19T07:29:10.679Z,22.37
2017-04-19T07:30:10.714Z,22.43
2017-04-19T07:31:10.745Z,22.37
2017-04-19T07:32:10.457Z,22.35
2017-04-19T07:33:10.477Z,22.39
2017-04-19T07:34:10.515Z,22.39
2017-04-19T07:35:11.104Z,22.36
2017-04-19T07:36:10.568Z,22.37
2017-04-19T07:37:10.893Z,22.39
2017-04-19T07:38:10.615Z,22.27
2017-04-19T07:39:10.959Z,22.28
2017-04-19T07:40:10.612Z,22.27
2017-04-19T07:41:11.012Z,22.27
2017-04-19T07:42:11.044Z,22.22
2017-04-19T07:43:11.065Z,22.24
2017-04-19T07:44:10.774Z,22.3
2017-04-19T07:45:11.372Z,22.27
2017-04-19T07:46:11.145Z,22.27
2017-04-19T07:47:11.168Z,22.27
2017-04-19T07:48:10.574Z,22.24
2017-04-19T07:49:11.221Z,22.28
2017-04-19T07:50:11.555Z,22.35
2017-04-19T07:51:11.283Z,22.24
2017-04-19T07:52:10.996Z,22.28
2017-04-19T07:53:11.333Z,22.27
2017-04-19T07:54:11.358Z,22.27
2017-04-19T07:55:11.671Z,22.25
2017-04-19T07:56:11.403Z,22.27
2017-04-19T07:57:11.436Z,22.27
2017-04-19T07:58:11.469Z,22.28
2017-04-19T07:59:11.493Z,22.28
2017-04-19T08:00:11.783Z,22.24
2017-04-19T08:01:11.543Z,22.33
2017-04-19T08:02:11.570Z,22.27
2017-04-19T08:03:11.599Z,22.3
2017-04-19T08:04:11.630Z,22.25
2017-04-19T08:05:11.903Z,22.24
2017-04-19T08:06:11.671Z,22.24
2017-04-19T08:07:11.400Z,22.21
2017-04-19T08:08:11.423Z,22.22
2017-04-19T08:09:11.761Z,22.28
2017-04-19T08:10:11.724Z,22.25
2017-04-19T08:11:11.807Z,22.2
2017-04-19T08:12:11.843Z,22.25
2017-04-19T08:13:11.870Z,22.35
2017-04-19T08:14:11.590Z,22.4
2017-04-19T08:15:12.228Z,22.33
2017-04-19T08:16:11.951Z,22.37
2017-04-19T08:17:11.667Z,22.4
2017-04-19T08:18:12.008Z,22.39
2017-04-19T08:19:12.032Z,22.24
2017-04-19T08:20:11.993Z,22.25
2017-04-19T08:21:12.086Z,22.27
2017-04-19T08:22:11.803Z,22.28
2017-04-19T08:23:11.547Z,22.35
2017-04-19T08:24:12.164Z,22.25
2017-04-19T08:25:12.125Z,22.27
2017-04-19T08:26:12.234Z,22.27
2017-04-19T08:27:11.934Z,22.2
2017-04-19T08:28:12.283Z,22.24
2017-04-19T08:29:12.290Z,22.21
2017-04-19T08:30:12.575Z,22.21
2017-04-19T08:31:12.348Z,22.3
2017-04-19T08:32:12.066Z,22.3
2017-04-19T08:33:12.094Z,22.25
2017-04-19T08:34:12.435Z,22.24
2017-04-19T08:35:12.456Z,22.36
2017-04-19T08:36:12.482Z,22.27
2017-04-19T08:37:12.193Z,22.4
2017-04-19T08:38:12.543Z,22.39
2017-04-19T08:39:12.571Z,22.3
2017-04-19T08:40:12.285Z,22.35
2017-04-19T08:41:12.630Z,22.33
2017-04-19T08:42:12.330Z,22.39
2017-04-19T08:43:12.672Z,22.4
2017-04-19T08:44:12.399Z,22.4
2017-04-19T08:45:12.732Z,22.4
2017-04-19T08:46:12.445Z,22.42
2017-04-19T08:47:12.890Z,22.36
2017-04-19T08:48:12.501Z,22.39
2017-04-19T08:49:12.841Z,22.36
2017-04-19T08:50:12.860Z,22.35
2017-04-19T08:51:12.889Z,22.36
2017-04-19T08:52:12.610Z,22.42
2017-04-19T08:53:12.955Z,22.37
2017-04-19T08:54:12.975Z,22.33
2017-04-19T08:55:12.693Z,22.36
2017-04-19T08:56:12.716Z,22.39
2017-04-19T08:57:13.058Z,22.37
2017-04-19T08:58:13.094Z,22.37
2017-04-19T08:59:13.111Z,22.36
2017-04-19T09:00:13.130Z,22.36
2017-04-19T09:01:13.165Z,22.36
2017-04-19T09:02:12.872Z,22.4
2017-04-19T09:03:13.212Z,22.37
2017-04-19T09:04:13.237Z,22.39
2017-04-19T09:05:13.290Z,22.47
2017-04-19T09:06:13.301Z,22.45
2017-04-19T09:07:13.009Z,22.39
2017-04-19T09:08:13.342Z,22.4
2017-04-19T09:09:13.374Z,22.45
2017-04-19T09:10:13.101Z,22.43
2017-04-19T09:11:13.368Z,22.4
2017-04-19T09:12:13.143Z,22.46
2017-04-19T09:13:13.485Z,22.47
2017-04-19T09:14:13.510Z,22.51
2017-04-19T09:15:13.230Z,22.47
2017-04-19T09:16:13.499Z,22.45
2017-04-19T09:17:13.595Z,22.39
2017-04-19T09:18:13.620Z,22.55
2017-04-19T09:19:13.650Z,22.46
2017-04-19T09:20:13.366Z,22.39
2017-04-19T09:21:13.954Z,22.39
2017-04-19T09:22:13.419Z,22.42
2017-04-19T09:23:13.757Z,22.37
2017-04-19T09:24:13.781Z,22.36
2017-04-19T09:25:13.813Z,22.4
2017-04-19T09:26:13.764Z,22.35
2017-04-19T09:27:13.863Z,22.37
2017-04-19T09:28:13.894Z,22.43
2017-04-19T09:29:13.929Z,22.37
2017-04-19T09:30:13.951Z,22.35
2017-04-19T09:31:14.222Z,22.4
2017-04-19T09:32:14.004Z,22.37
2017-04-19T09:33:13.708Z,22.39
2017-04-19T09:34:13.732Z,22.37
2017-04-19T09:35:13.925Z,22.43
2017-04-19T09:36:14.357Z,22.37
2017-04-19T09:37:13.831Z,22.37
2017-04-19T09:38:13.849Z,22.37
2017-04-19T09:39:14.183Z,22.37
2017-04-19T09:40:13.910Z,22.45
2017-04-19T09:41:14.498Z,22.4
2017-04-19T09:42:14.271Z,22.31
2017-04-19T09:43:14.300Z,22.4
2017-04-19T09:44:14.321Z,22.31
2017-04-19T09:45:14.353Z,22.42
2017-04-19T09:46:14.319Z,22.4
2017-04-19T09:47:14.410Z,22.4
2017-04-19T09:48:14.433Z,22.36
2017-04-19T09:49:14.153Z,22.4
2017-04-19T09:50:14.488Z,22.42
2017-04-19T09:51:14.801Z,22.35
2017-04-19T09:52:14.543Z,22.4
2017-04-19T09:53:14.260Z,22.31
2017-04-19T09:54:14.596Z,22.37
2017-04-19T09:55:14.616Z,22.4
2017-04-19T09:56:14.907Z,22.3
2017-04-19T09:57:14.687Z,22.33
2017-04-19T09:58:14.095Z,22.37
2017-04-19T09:59:14.731Z,22.25
2017-04-19T10:00:14.765Z,22.35
2017-04-19T10:01:15.038Z,22.35
2017-04-19T10:02:14.507Z,22.31
2017-04-19T10:03:14.839Z,22.39
2017-04-19T10:04:14.559Z,22.25
2017-04-19T10:05:14.588Z,22.24
2017-04-19T10:06:15.177Z,22.25
2017-04-19T10:07:14.955Z,22.27
2017-04-19T10:08:14.982Z,22.27
2017-04-19T10:09:14.695Z,22.22
2017-04-19T10:10:15.031Z,22.28
2017-04-19T10:11:14.438Z,22.28
2017-04-19T10:12:14.470Z,22.27
2017-04-19T10:13:15.117Z,22.28
2017-04-19T10:14:14.509Z,22.27
2017-04-19T10:15:15.171Z,22.24
2017-04-19T10:16:14.889Z,22.24
2017-04-19T10:17:14.914Z,22.25
2017-04-19T10:18:15.254Z,22.24
2017-04-19T10:19:15.289Z,22.4
2017-04-19T10:20:15.295Z,22.36
2017-04-19T10:21:15.024Z,22.36
2017-04-19T10:22:15.360Z,22.36
2017-04-19T10:23:15.386Z,22.25
2017-04-19T10:24:15.106Z,22.39
2017-04-19T10:25:15.431Z,22.27
2017-04-19T10:26:15.465Z,22.35
2017-04-19T10:27:15.497Z,22.31
2017-04-19T10:28:15.517Z,22.33
2017-04-19T10:29:15.546Z,22.39
2017-04-19T10:30:15.572Z,22.42
2017-04-19T10:31:15.605Z,22.37
2017-04-19T10:32:15.564Z,22.36
2017-04-19T10:33:15.653Z,22.42
2017-04-19T10:34:15.685Z,22.4
2017-04-19T10:35:15.083Z,22.42
2017-04-19T10:36:15.116Z,22.39
2017-04-19T10:37:15.705Z,22.45
2017-04-19T10:38:15.161Z,22.35
2017-04-19T10:39:15.822Z,22.4
2017-04-19T10:40:15.219Z,22.37
2017-04-19T10:41:15.250Z,22.37
2017-04-19T10:42:15.531Z,22.37
2017-04-19T10:43:15.618Z,22.39
2017-04-19T10:44:15.952Z,22.36
2017-04-19T10:45:15.670Z,22.45
2017-04-19T10:46:16.017Z,22.37
2017-04-19T10:47:16.289Z,22.46
2017-04-19T10:48:16.059Z,22.4
2017-04-19T10:49:16.085Z,22.4
2017-04-19T10:50:16.302Z,22.4
2017-04-19T10:51:16.146Z,22.43
2017-04-19T10:52:16.104Z,22.45
2017-04-19T10:53:16.205Z,22.39
2017-04-19T10:54:16.220Z,22.35
2017-04-19T10:55:16.257Z,22.37
2017-04-19T10:56:16.274Z,22.3
2017-04-19T10:57:16.575Z,22.43
2017-04-19T10:58:16.336Z,22.42
2017-04-19T10:59:16.365Z,22.42
2017-04-19T11:00:16.394Z,22.33
2017-04-19T11:01:16.423Z,22.36
2017-04-19T11:02:16.383Z,22.31
2017-04-19T11:03:16.171Z,22.37
2017-04-19T11:04:16.177Z,22.37
2017-04-19T11:05:16.526Z,22.37
2017-04-19T11:06:16.541Z,22.37
2017-04-19T11:07:16.827Z,22.39
2017-04-19T11:08:16.604Z,22.27
2017-04-19T11:09:16.323Z,22.36
2017-04-19T11:10:16.349Z,22.37
2017-04-19T11:11:16.372Z,22.36
2017-04-19T11:12:16.965Z,22.31
2017-04-19T11:13:16.746Z,22.36
2017-04-19T11:14:16.460Z,22.37
2017-04-19T11:15:16.791Z,22.4
2017-04-19T11:16:16.817Z,22.39
2017-04-19T11:17:16.802Z,22.46
2017-04-19T11:18:16.591Z,22.39
2017-04-19T11:19:16.904Z,22.4
2017-04-19T11:20:16.620Z,22.39
2017-04-19T11:21:16.961Z,22.39
2017-04-19T11:22:16.933Z,22.35
2017-04-19T11:23:16.390Z,22.37
2017-04-19T11:24:17.038Z,22.35
2017-04-19T11:25:17.070Z,22.45
2017-04-19T11:26:17.087Z,22.37
2017-04-19T11:27:17.678Z,22.4
2017-04-19T11:28:16.951Z,22.37
2017-04-19T11:29:17.179Z,22.43
2017-04-19T11:30:17.203Z,22.36
2017-04-19T11:31:16.600Z,22.4
2017-04-19T11:32:16.949Z,22.4
2017-04-19T11:33:16.978Z,22.4
2017-04-19T11:34:17.007Z,22.4
2017-04-19T11:35:17.344Z,22.42
2017-04-19T11:36:17.371Z,22.42
2017-04-19T11:37:17.081Z,22.35
2017-04-19T11:38:17.426Z,22.36
2017-04-19T11:39:17.142Z,22.42
2017-04-19T11:40:17.475Z,22.39
2017-04-19T11:41:17.195Z,22.36
2017-04-19T11:42:17.228Z,22.27
2017-04-19T11:43:17.567Z,22.25
2017-04-19T11:44:17.279Z,22.3
2017-04-19T11:45:17.003Z,22.28
2017-04-19T11:46:17.326Z,22.28
2017-04-19T11:47:17.356Z,22.27
2017-04-19T11:48:17.389Z,22.25
2017-04-19T11:49:17.727Z,22.24
2017-04-19T11:50:17.754Z,22.22
2017-04-19T11:51:17.812Z,22.24
2017-04-19T11:52:17.815Z,22.3
2017-04-19T11:53:17.841Z,22.31
2017-04-19T11:54:17.862Z,22.33
2017-04-19T11:55:17.887Z,22.28
2017-04-19T11:56:17.855Z,22.25
2017-04-19T11:57:17.627Z,22.24
2017-04-19T11:58:17.351Z,22.28
2017-04-19T11:59:17.998Z,22.3
2017-04-19T12:00:18.027Z,22.24
2017-04-19T12:01:18.050Z,22.24
2017-04-19T12:02:17.767Z,22.21
2017-04-19T12:03:18.102Z,22.21
2017-04-19T12:04:17.821Z,22.17
2017-04-19T12:05:17.850Z,22.2
2017-04-19T12:06:18.185Z,22.25
2017-04-19T12:07:17.900Z,22.12
2017-04-19T12:08:18.259Z,22.12
2017-04-19T12:09:18.265Z,22.12
2017-04-19T12:10:18.293Z,22.15
2017-04-19T12:11:18.318Z,22.12
2017-04-19T12:12:18.036Z,22.14
2017-04-19T12:13:18.380Z,22.15
2017-04-19T12:14:18.401Z,22.1
2017-04-19T12:15:18.321Z,22.12
2017-04-19T12:16:18.149Z,22.05
2017-04-19T12:17:18.473Z,22.06
2017-04-19T12:18:18.511Z,22.06
2017-04-19T12:19:18.249Z,22.06
2017-04-19T12:20:18.568Z,22.14
2017-04-19T12:21:18.594Z,22.1
2017-04-19T12:22:18.622Z,22.12
2017-04-19T12:23:18.648Z,22.1
2017-04-19T12:24:18.351Z,22.07
2017-04-19T12:25:18.404Z,22.06
2017-04-19T12:26:18.722Z,22.05
2017-04-19T12:27:18.751Z,22.14
2017-04-19T12:28:18.772Z,22.03
2017-04-19T12:29:18.491Z,22.17
2017-04-19T12:30:18.841Z,22.14
2017-04-19T12:31:18.557Z,22.12
2017-04-19T12:32:18.895Z,22.12
2017-04-19T12:33:18.287Z,22.17
2017-04-19T12:34:18.832Z,22.14
2017-04-19T12:35:18.972Z,22.15
2017-04-19T12:36:18.998Z,22.12
2017-04-19T12:37:19.026Z,22.14
2017-04-19T12:38:19.047Z,22.15
2017-04-19T12:39:19.084Z,22.15
2017-04-19T12:40:18.787Z,22.09
2017-04-19T12:41:19.137Z,22.17
2017-04-19T12:42:18.853Z,22.18
2017-04-19T12:43:19.185Z,22.06
2017-04-19T12:44:19.207Z,22.1
2017-04-19T12:45:18.932Z,22.14
2017-04-19T12:46:18.956Z,22.07
2017-04-19T12:47:19.291Z,22.09
2017-04-19T12:48:19.322Z,22.1
2017-04-19T12:49:19.356Z,22.09
2017-04-19T12:50:19.376Z,22.12
2017-04-19T12:51:19.096Z,22.09
2017-04-19T12:52:19.433Z,22.14
2017-04-19T12:53:19.165Z,22.09
2017-04-19T12:54:19.174Z,22.1
2017-04-19T12:55:19.514Z,22.09
2017-04-19T12:56:19.548Z,22.1
2017-04-19T12:57:19.565Z,22.1